Time;durP1;ratioP1;P1;durP2;ratioP2;P2;SDS_P1;SDS_P2;PMS_P1;PMS_P2;Temp;Humidity;BMP_temperature;BMP_pressure;BME280_temperature;BME280_humidity;BME280_pressure;Samples;Min_cycle;Max_cycle;Signal;HPM_P1;HPM_P2
2021/06/01 00:00:01;;;;;;;5.28;2.83;;;;;;;10.00;79.71;95690.22;1040337;28;20071;-80
2021/06/01 00:00:34;;;;;;;4.22;3.00;;;;;;;10.10;79.32;95708.53;1032255;28;20022;-80
2021/06/01 00:01:07;;;;;;;4.65;2.80;;;;;;;10.27;79.05;95730.44;1032127;28;20046;-80
2021/06/01 00:01:46;;;;;;;5.00;3.15;;;;;;;10.26;79.93;95728.78;1028050;28;20035;-82
2021/06/01 00:02:21;;;;;;;5.53;3.00;;;;;;;10.34;79.62;95740.19;1036374;28;20487;-80
2021/06/01 00:02:55;;;;;;;4.15;2.63;;;;;;;10.16;79.77;95713.13;1036212;28;20022;-82
2021/06/01 00:03:26;;;;;;;5.13;3.08;;;;;;;10.41;79.66;95755.41;1028131;28;20027;-81
2021/06/01 00:03:58;;;;;;;4.97;2.92;;;;;;;10.16;80.29;95723.75;1036017;28;20403;-80
2021/06/01 00:04:30;;;;;;;3.88;2.58;;;;;;;10.23;80.60;95726.50;1028000;28;20027;-80
2021/06/01 00:05:02;;;;;;;6.22;3.20;;;;;;;10.21;80.28;95732.00;1032065;28;20030;-80
2021/06/01 00:05:33;;;;;;;5.00;2.72;;;;;;;10.42;81.19;95768.50;1036080;28;20026;-80
2021/06/01 00:06:05;;;;;;;5.00;2.92;;;;;;;10.36;81.04;95745.31;1028146;28;20023;-80
2021/06/01 00:06:37;;;;;;;5.13;3.45;;;;;;;10.26;80.82;95740.25;1032158;28;20464;-80
2021/06/01 00:07:10;;;;;;;4.35;2.85;;;;;;;10.41;80.73;95766.84;1031933;28;20018;-80
2021/06/01 00:07:41;;;;;;;4.57;3.00;;;;;;;10.14;81.42;95734.53;1036139;28;20080;-80
2021/06/01 00:08:14;;;;;;;4.07;3.00;;;;;;;10.17;81.91;95746.59;1032240;28;20026;-81
2021/06/01 00:08:49;;;;;;;4.07;2.95;;;;;;;10.19;81.12;95753.41;1032128;28;20023;-81
2021/06/01 00:09:24;;;;;;;6.28;3.38;;;;;;;10.08;81.80;95739.72;1028201;28;20034;-79
2021/06/01 00:09:55;;;;;;;3.83;2.78;;;;;;;10.15;82.61;95762.72;1032036;28;20030;-81
2021/06/01 00:10:27;;;;;;;5.85;2.80;;;;;;;10.02;82.56;95737.78;1032183;28;20031;-80
2021/06/01 00:10:59;;;;;;;4.72;2.60;;;;;;;9.88;82.70;95721.63;1028100;28;20037;-81
2021/06/01 00:11:31;;;;;;;4.45;3.10;;;;;;;10.13;82.34;95761.25;1028249;28;20057;-80
2021/06/01 00:12:06;;;;;;;5.15;2.90;;;;;;;10.02;82.89;95740.44;1031967;28;20026;-82
2021/06/01 00:12:45;;;;;;;5.18;2.88;;;;;;;10.03;82.74;95742.91;1040381;28;20028;-82
2021/06/01 00:13:18;;;;;;;3.83;2.78;;;;;;;9.73;82.65;95695.03;1036324;28;20040;-82
2021/06/01 00:13:50;;;;;;;2.92;2.33;;;;;;;9.53;82.54;95670.84;1036236;28;20026;-80
2021/06/01 00:14:23;;;;;;;3.92;2.60;;;;;;;9.63;82.32;95692.66;1032066;28;20169;-82
2021/06/01 00:14:58;;;;;;;4.72;2.90;;;;;;;9.72;82.53;95708.47;1023967;29;20397;-82
2021/06/01 00:15:33;;;;;;;4.10;2.80;;;;;;;9.84;82.36;95733.59;1024048;28;20090;-82
2021/06/01 00:16:07;;;;;;;4.68;2.97;;;;;;;9.24;82.39;95632.59;1028232;28;20082;-80
2021/06/01 00:16:40;;;;;;;4.50;3.03;;;;;;;9.65;83.08;95702.22;1032914;28;20481;-82
2021/06/01 00:17:13;;;;;;;5.20;2.97;;;;;;;9.50;82.91;95673.84;1028792;28;20030;-80
2021/06/01 00:17:46;;;;;;;4.32;2.95;;;;;;;9.42;82.89;95664.13;1028860;28;20023;-81
2021/06/01 00:18:19;;;;;;;4.10;2.85;;;;;;;9.53;82.76;95681.44;1028841;28;20050;-79
2021/06/01 00:18:52;;;;;;;6.22;3.17;;;;;;;9.62;83.33;95704.25;1029004;28;20026;-79
2021/06/01 00:19:25;;;;;;;4.28;3.17;;;;;;;9.35;83.59;95655.22;1028933;28;20034;-80
2021/06/01 00:19:58;;;;;;;6.72;3.10;;;;;;;9.69;83.29;95703.53;1033169;28;20459;-81
2021/06/01 00:20:30;;;;;;;5.00;3.00;;;;;;;9.43;83.52;95668.41;1029453;28;20101;-82
2021/06/01 00:21:05;;;;;;;5.32;2.72;;;;;;;9.76;83.51;95713.25;1033174;28;20170;-81
2021/06/01 00:21:37;;;;;;;5.45;3.25;;;;;;;9.68;83.57;95705.34;1037096;28;20537;-80
2021/06/01 00:22:12;;;;;;;5.47;3.10;;;;;;;9.44;83.75;95667.41;1033010;28;20053;-82
2021/06/01 00:22:47;;;;;;;5.43;3.00;;;;;;;9.73;83.29;95713.59;1036998;28;20384;-80
2021/06/01 00:23:22;;;;;;;3.75;2.72;;;;;;;9.69;83.27;95696.41;1028698;28;20045;-79
2021/06/01 00:23:55;;;;;;;5.93;3.22;;;;;;;9.54;83.19;95675.13;1028685;28;20053;-80
2021/06/01 00:24:28;;;;;;;5.07;3.15;;;;;;;9.74;83.64;95709.97;1028738;28;20023;-82
2021/06/01 00:25:07;;;;;;;3.42;2.50;;;;;;;9.71;82.87;95707.66;1033014;28;20026;-80
2021/06/01 00:25:46;;;;;;;3.92;2.72;;;;;;;9.39;83.18;95658.34;1028993;28;20030;-82
2021/06/01 00:26:20;;;;;;;5.70;3.35;;;;;;;9.75;83.36;95708.97;1032846;28;20026;-81
2021/06/01 00:26:53;;;;;;;4.63;2.92;;;;;;;9.40;83.20;95658.19;1033114;28;20113;-82
2021/06/01 00:27:26;;;;;;;4.95;3.10;;;;;;;9.46;83.15;95672.53;1029015;28;20512;-80
2021/06/01 00:28:02;;;;;;;5.68;3.47;;;;;;;9.84;83.56;95730.97;1025224;29;20023;-82
2021/06/01 00:28:36;;;;;;;4.57;3.08;;;;;;;9.49;83.79;95666.91;1029003;28;20110;-80
2021/06/01 00:29:09;;;;;;;5.10;2.97;;;;;;;9.40;83.43;95657.34;1032621;28;20023;-81
2021/06/01 00:29:46;;;;;;;6.70;3.35;;;;;;;9.63;83.44;95692.66;1033063;28;20073;-83
2021/06/01 00:30:19;;;;;;;4.57;3.13;;;;;;;9.56;83.42;95681.09;1032981;28;20088;-80
2021/06/01 00:30:56;;;;;;;5.82;3.40;;;;;;;10.02;82.96;95753.72;1028900;28;20022;-80
2021/06/01 00:31:45;;;;;;;4.63;3.20;;;;;;;9.67;83.53;95703.72;1024598;29;20031;-80
2021/06/01 00:32:19;;;;;;;4.60;3.38;;;;;;;9.81;83.32;95720.69;1033771;28;20080;-80
2021/06/01 00:32:55;;;;;;;5.82;2.72;;;;;;;9.40;83.33;95658.19;1032946;28;20030;-80
2021/06/01 00:33:28;;;;;;;5.60;3.17;;;;;;;9.43;83.18;95657.81;1028890;28;20031;-82
2021/06/01 00:34:02;;;;;;;4.38;3.20;;;;;;;10.13;82.79;95766.53;1024883;29;20024;-80
2021/06/01 00:34:56;;;;;;;3.42;2.47;;;;;;;10.12;83.20;95767.53;1028807;28;20037;-82
2021/06/01 00:35:37;;;;;;;4.78;3.22;;;;;;;9.38;83.15;95657.50;1033090;28;20065;-82
2021/06/01 00:36:11;;;;;;;5.20;3.15;;;;;;;9.68;83.45;95707.19;1033921;28;20022;-80
2021/06/01 00:36:45;;;;;;;4.18;2.83;;;;;;;9.74;83.06;95706.50;1028654;28;20051;-80
2021/06/01 00:37:17;;;;;;;6.43;3.13;;;;;;;10.11;83.18;95771.22;1028602;28;20058;-79
2021/06/01 00:37:54;;;;;;;5.20;3.05;;;;;;;9.36;83.25;95650.75;1024723;28;20026;-81
2021/06/01 00:38:28;;;;;;;4.57;3.50;;;;;;;10.10;82.95;95769.53;1028711;28;20492;-82
2021/06/01 00:39:12;;;;;;;6.18;3.35;;;;;;;9.65;83.14;95691.63;1024795;28;20532;-81
2021/06/01 00:39:56;;;;;;;4.63;3.08;;;;;;;9.62;83.94;95690.16;1028896;28;20575;-81
2021/06/01 00:40:38;;;;;;;6.75;3.17;;;;;;;9.64;83.85;95701.41;1027840;28;20054;-81
2021/06/01 00:41:21;;;;;;;4.55;3.20;;;;;;;9.44;83.87;95663.94;1024852;28;20039;-81
2021/06/01 00:42:05;;;;;;;4.50;2.80;;;;;;;10.07;84.40;95759.31;1029188;28;20062;-81
2021/06/01 00:42:49;;;;;;;6.15;3.20;;;;;;;9.75;84.24;95718.72;1033198;28;20505;-81
2021/06/01 00:43:30;;;;;;;4.18;2.97;;;;;;;9.37;83.77;95661.19;1028736;28;20019;-82
2021/06/01 00:44:07;;;;;;;6.85;3.88;;;;;;;9.69;83.58;95698.25;1037176;28;20029;-81
2021/06/01 00:44:45;;;;;;;6.05;3.47;;;;;;;9.50;84.24;95679.13;1036722;28;20018;-81
2021/06/01 00:45:31;;;;;;;;;;;;;;;10.05;84.25;95761.28;1029281;28;20074;-81
2021/06/01 00:46:21;;;;;;;7.95;3.30;;;;;;;9.73;84.68;95718.91;1030625;28;19910;-81
2021/06/01 00:46:56;;;;;;;6.57;3.25;;;;;;;9.37;84.63;95660.31;1036810;28;20486;-81
2021/06/01 00:47:30;;;;;;;5.05;3.10;;;;;;;9.61;84.46;95691.16;1032733;28;20019;-81
2021/06/01 00:48:07;;;;;;;6.20;3.20;;;;;;;9.39;84.35;95659.16;1028670;28;20023;-81
2021/06/01 00:48:45;;;;;;;6.57;2.95;;;;;;;9.82;84.51;95722.31;1028869;28;20468;-81
2021/06/01 00:49:45;;;;;;;5.18;3.40;;;;;;;9.42;83.91;95664.13;1032891;28;20111;-81
2021/06/01 00:50:25;;;;;;;4.00;2.95;;;;;;;9.43;84.17;95672.88;1033882;28;20030;-81
2021/06/01 00:51:02;;;;;;;5.30;3.28;;;;;;;9.37;83.45;95649.72;1034570;28;20033;-80
2021/06/01 00:51:42;;;;;;;3.95;2.58;;;;;;;9.57;83.53;95680.06;1033120;28;20030;-81
2021/06/01 00:52:19;;;;;;;4.63;3.15;;;;;;;9.63;84.03;95697.94;1028528;28;20504;-82
2021/06/01 00:52:57;;;;;;;6.00;3.05;;;;;;;9.66;83.79;95699.41;1029945;28;20030;-81
2021/06/01 00:53:39;;;;;;;5.47;3.15;;;;;;;9.40;83.38;95657.34;1024165;29;20031;-81
2021/06/01 00:54:41;;;;;;;5.07;3.17;;;;;;;9.95;83.41;95746.44;1025980;28;20023;-81
2021/06/01 00:55:18;;;;;;;5.65;3.13;;;;;;;9.75;82.90;95708.13;1035696;28;20138;-81
2021/06/01 00:55:59;;;;;;;4.75;2.88;;;;;;;9.66;82.88;95699.41;1032449;28;20042;-82
2021/06/01 00:56:42;;;;;;;5.18;2.88;;;;;;;9.57;83.22;95685.38;1033659;28;20033;-81
2021/06/01 00:57:19;;;;;;;4.50;2.60;;;;;;;10.03;83.55;95768.59;1033487;28;20030;-82
2021/06/01 00:57:53;;;;;;;3.85;2.40;;;;;;;9.65;83.16;95703.06;1029150;28;20547;-82
2021/06/01 00:58:27;;;;;;;6.03;2.92;;;;;;;9.82;83.41;95719.69;1028935;28;20508;-81
2021/06/01 00:59:14;;;;;;;4.45;2.78;;;;;;;9.65;83.12;95695.13;1028642;28;20094;-81
2021/06/01 00:59:52;;;;;;;6.38;3.20;;;;;;;9.36;83.38;95650.75;1024936;28;20032;-81
2021/06/01 01:01:39;;;;;;;4.70;2.90;;;;;;;9.72;84.20;95724.38;1034997;28;20030;-81
2021/06/01 01:02:17;;;;;;;6.93;3.08;;;;;;;9.34;83.99;95652.75;1034706;28;20062;-82
2021/06/01 01:02:53;;;;;;;4.35;3.00;;;;;;;9.61;84.19;95699.09;1033416;28;20018;-83
2021/06/01 01:03:36;;;;;;;8.35;3.45;;;;;;;9.33;83.35;95648.44;1032576;28;20035;-82
2021/06/01 01:04:17;;;;;;;4.90;3.10;;;;;;;9.42;83.74;95673.88;1033235;28;20027;-82
2021/06/01 01:04:49;;;;;;;3.92;2.67;;;;;;;9.84;83.79;95727.47;1037188;28;20094;-82
2021/06/01 01:05:38;;;;;;;4.07;2.97;;;;;;;9.51;84.02;95677.31;1036996;28;20045;-82
2021/06/01 01:06:46;;;;;;;9.32;3.33;;;;;;;9.86;86.82;95757.28;1034336;28;20118;-82
2021/06/01 01:07:45;;;;;;;5.05;3.03;;;;;;;9.36;87.46;95693.16;1049368;28;20024;-82
2021/06/01 01:08:47;;;;;;;4.03;3.03;;;;;;;9.51;88.78;95736.47;1041002;28;20021;-81
2021/06/01 01:09:35;;;;;;;5.95;2.70;;;;;;;9.06;88.61;95658.53;1032594;28;20128;-82
2021/06/01 01:10:15;;;;;;;5.18;2.78;;;;;;;9.30;88.62;95692.03;1028761;28;20083;-80
2021/06/01 01:11:19;;;;;;;4.57;2.90;;;;;;;9.35;89.16;95699.44;1030256;28;20117;-81
2021/06/01 01:12:36;;;;;;;5.13;2.90;;;;;;;9.07;87.53;95631.03;1028568;28;20211;-82
2021/06/01 01:13:29;;;;;;;6.10;3.03;;;;;;;9.12;86.27;95633.16;1031890;28;20035;-81
2021/06/01 01:14:22;;;;;;;6.15;2.78;;;;;;;9.92;86.00;95748.63;1045041;28;20043;-80
2021/06/01 01:14:58;;;;;;;6.90;2.88;;;;;;;9.43;85.85;95672.88;1039009;28;20030;-79
2021/06/01 01:15:30;;;;;;;6.05;3.03;;;;;;;9.27;85.47;95649.97;1028831;28;20458;-80
2021/06/01 01:16:04;;;;;;;5.85;3.05;;;;;;;9.74;85.36;95723.22;1024673;28;20019;-80
2021/06/01 01:16:36;;;;;;;4.30;2.80;;;;;;;9.63;84.50;95710.34;1032633;28;20026;-82
2021/06/01 01:17:11;;;;;;;4.85;2.85;;;;;;;9.17;85.21;95631.63;1032594;28;20439;-80
2021/06/01 01:17:51;;;;;;;5.68;2.88;;;;;;;9.53;85.26;95678.78;1032620;28;20042;-80
2021/06/01 01:18:30;;;;;;;6.55;3.22;;;;;;;9.54;85.32;95683.06;1036698;28;20014;-81
2021/06/01 01:19:35;;;;;;;6.13;3.25;;;;;;;9.71;85.16;95705.00;1036578;28;20029;-81
2021/06/01 01:20:21;;;;;;;5.65;2.88;;;;;;;9.62;85.09;95698.94;1032004;28;20096;-80
2021/06/01 01:21:30;;;;;;;4.75;2.90;;;;;;;9.24;86.18;95658.25;1034989;28;20021;-80
2021/06/01 01:22:03;;;;;;;7.70;3.42;;;;;;;9.08;85.64;95619.44;1032798;28;20030;-80
2021/06/01 01:22:41;;;;;;;5.38;2.75;;;;;;;9.16;85.91;95653.00;1031666;28;20081;-79
2021/06/01 01:23:21;;;;;;;4.82;2.60;;;;;;;9.21;86.04;95648.00;1028692;28;20040;-80
2021/06/01 01:24:32;;;;;;;4.88;2.88;;;;;;;9.87;86.08;95741.19;1032717;28;20026;-80
2021/06/01 01:25:24;;;;;;;5.88;3.00;;;;;;;9.91;85.09;95745.16;1028484;28;20027;-79
2021/06/01 01:26:00;;;;;;;4.15;2.88;;;;;;;9.92;84.52;95740.66;1032612;28;20014;-80
2021/06/01 01:27:10;;;;;;;6.15;3.10;;;;;;;9.88;85.33;95734.09;1032866;28;20018;-82
2021/06/01 01:28:16;;;;;;;4.70;3.08;;;;;;;9.84;84.99;95744.22;1042993;28;20044;-80
2021/06/01 01:29:01;;;;;;;4.72;2.92;;;;;;;9.05;84.61;95633.84;1040741;28;20014;-79
2021/06/01 01:29:37;;;;;;;5.45;3.30;;;;;;;9.77;84.71;95740.59;1032639;28;20120;-80
2021/06/01 01:30:10;;;;;;;4.72;3.13;;;;;;;9.36;85.11;95678.06;1032694;28;20400;-81
2021/06/01 01:31:16;;;;;;;3.67;2.83;;;;;;;9.66;84.66;95735.72;1036752;28;20555;-80
2021/06/01 01:31:59;;;;;;;4.63;3.05;;;;;;;9.36;85.26;95679.91;1036652;28;20448;-81
2021/06/01 01:32:36;;;;;;;5.22;2.53;;;;;;;9.74;85.07;95738.31;1031147;28;20029;-82
2021/06/01 01:33:20;;;;;;;6.75;3.25;;;;;;;9.31;85.37;95675.09;1028874;28;20441;-82
2021/06/01 01:33:54;;;;;;;7.03;3.53;;;;;;;9.24;85.18;95663.56;1036736;28;20025;-80
2021/06/01 01:34:27;;;;;;;7.00;3.03;;;;;;;9.02;85.19;95633.38;1028575;28;20023;-79
2021/06/01 01:35:11;;;;;;;;;;;;;;;9.69;85.39;95740.66;1037197;28;20030;-82
2021/06/01 01:36:00;;;;;;;3.60;2.60;;;;;;;9.13;85.07;95662.13;1034619;28;20320;-81
2021/06/01 01:36:34;;;;;;;5.65;2.60;;;;;;;8.99;85.50;95639.88;1037560;28;20105;-81
2021/06/01 01:37:34;;;;;;;4.00;2.80;;;;;;;9.22;85.43;95668.22;1039987;28;20104;-81
2021/06/01 01:38:19;;;;;;;7.05;2.92;;;;;;;9.66;85.85;95738.38;1032550;28;20097;-82
2021/06/01 01:38:52;;;;;;;6.43;3.17;;;;;;;9.65;85.82;95731.41;1028724;28;20038;-79
2021/06/01 01:39:25;;;;;;;5.78;2.97;;;;;;;9.19;86.03;95677.31;1032508;28;20022;-79
2021/06/01 01:40:02;;;;;;;5.13;3.03;;;;;;;9.58;86.17;95742.72;1036719;28;20053;-80
2021/06/01 01:40:43;;;;;;;7.55;3.53;;;;;;;8.94;86.27;95642.22;1032607;28;20030;-81
2021/06/01 01:41:22;;;;;;;6.05;3.20;;;;;;;9.11;86.44;95658.84;1028695;28;20057;-80
2021/06/01 01:42:00;;;;;;;5.05;3.28;;;;;;;8.87;86.22;95620.88;1028519;28;20038;-80
2021/06/01 01:42:41;;;;;;;7.07;4.22;;;;;;;9.46;86.99;95707.00;1032859;28;20054;-81
2021/06/01 01:43:23;;;;;;;7.63;3.28;;;;;;;8.95;86.65;95633.28;1032640;28;20026;-82
2021/06/01 01:43:56;;;;;;;6.22;3.50;;;;;;;9.17;87.39;95678.50;1028779;28;20023;-80
2021/06/01 01:44:27;;;;;;;6.30;3.85;;;;;;;9.60;88.15;95732.75;1037374;28;20454;-81
2021/06/01 01:48:58;;;;;;;3.72;3.00;;;;;;;9.33;89.15;95706.75;1025784;29;20047;-80
2021/06/01 01:49:40;;;;;;;5.18;3.35;;;;;;;9.34;90.79;95716.34;1020632;29;20470;-80
2021/06/01 01:50:10;;;;;;;5.22;3.67;;;;;;;9.40;91.29;95728.88;1013844;29;20029;-81
2021/06/01 01:50:41;;;;;;;9.60;3.47;;;;;;;9.23;91.43;95705.13;1016849;29;20020;-80
2021/06/01 01:51:13;;;;;;;10.30;3.47;;;;;;;9.24;91.62;95720.03;1013111;29;20478;-81
2021/06/01 01:51:44;;;;;;;8.82;3.70;;;;;;;9.36;92.35;95733.72;1013020;29;20054;-80
2021/06/01 01:52:15;;;;;;;9.02;3.60;;;;;;;9.29;92.30;95724.81;1013111;29;20431;-80
2021/06/01 01:52:46;;;;;;;8.55;4.03;;;;;;;9.36;92.44;95732.91;1016966;29;20020;-81
2021/06/01 01:53:17;;;;;;;7.20;4.00;;;;;;;9.32;92.72;95731.56;1012939;29;20109;-81
2021/06/01 01:53:57;;;;;;;6.05;3.53;;;;;;;9.10;93.47;95698.75;1012995;29;20025;-81
2021/06/01 01:54:29;;;;;;;5.30;4.18;;;;;;;9.31;93.13;95732.59;1016908;29;20020;-81
2021/06/01 01:55:00;;;;;;;5.80;3.30;;;;;;;9.29;92.94;95738.06;1012883;29;20028;-80
2021/06/01 01:55:30;;;;;;;6.03;3.40;;;;;;;9.28;93.37;95738.22;1020926;29;20028;-80
2021/06/01 01:56:01;;;;;;;5.97;3.63;;;;;;;9.28;92.78;95724.97;1013013;29;20028;-80
2021/06/01 01:56:36;;;;;;;7.43;3.50;;;;;;;9.28;93.10;95728.44;1016783;29;20024;-81
2021/06/01 01:57:11;;;;;;;6.47;3.65;;;;;;;9.14;93.46;95702.69;1020571;29;20116;-80
2021/06/01 01:57:45;;;;;;;6.57;3.85;;;;;;;9.33;93.68;95741.19;1009120;29;20033;-81
2021/06/01 01:58:16;;;;;;;10.13;3.63;;;;;;;9.17;93.55;95705.81;1016640;29;20091;-80
2021/06/01 01:58:48;;;;;;;6.00;3.53;;;;;;;9.18;93.56;95715.44;1017123;29;20027;-81
2021/06/01 01:59:21;;;;;;;6.93;3.55;;;;;;;9.16;93.27;95704.19;1013186;29;20029;-81
2021/06/01 01:59:51;;;;;;;10.02;3.95;;;;;;;8.94;93.17;95675.81;1017385;29;20502;-81
2021/06/01 02:00:22;;;;;;;13.10;4.20;;;;;;;9.23;93.81;95717.53;1013279;29;20032;-80
2021/06/01 02:00:53;;;;;;;7.50;4.05;;;;;;;9.30;93.97;95736.22;1025285;29;20033;-80
2021/06/01 02:01:24;;;;;;;9.80;3.90;;;;;;;9.01;94.19;95703.25;1021546;29;20110;-80
2021/06/01 02:01:54;;;;;;;6.20;3.72;;;;;;;9.09;93.77;95707.69;1017698;29;20204;-81
2021/06/01 02:02:25;;;;;;;6.57;3.80;;;;;;;9.20;93.86;95723.22;1017660;29;20032;-80
2021/06/01 02:02:56;;;;;;;6.80;4.15;;;;;;;9.06;94.16;95703.56;1014156;29;20032;-80
2021/06/01 02:03:26;;;;;;;4.32;3.20;;;;;;;9.02;93.81;95691.66;1014129;29;20083;-80
2021/06/01 02:03:57;;;;;;;4.45;3.42;;;;;;;9.04;94.05;95689.69;1026207;29;20106;-81
2021/06/01 02:04:29;;;;;;;5.70;3.60;;;;;;;8.98;93.83;95687.72;1017896;29;20023;-81
2021/06/01 02:05:00;;;;;;;5.50;3.35;;;;;;;9.19;93.97;95718.91;1021743;29;20028;-80
2021/06/01 02:05:31;;;;;;;8.38;3.70;;;;;;;8.93;93.93;95671.50;1025642;29;20057;-80
2021/06/01 02:06:02;;;;;;;7.05;3.58;;;;;;;8.96;94.30;95684.41;1021645;29;20023;-81
2021/06/01 02:06:32;;;;;;;7.43;3.70;;;;;;;9.19;94.77;95727.66;1017994;29;20038;-81
2021/06/01 02:07:03;;;;;;;6.38;3.75;;;;;;;9.19;95.13;95725.00;1017966;29;20031;-81
2021/06/01 02:07:34;;;;;;;6.40;3.70;;;;;;;9.20;95.05;95734.63;1018315;29;20031;-81
2021/06/01 02:08:07;;;;;;;5.93;3.50;;;;;;;9.14;95.68;95719.41;1017653;29;20393;-80
2021/06/01 02:08:39;;;;;;;6.85;3.88;;;;;;;9.11;95.55;95714.47;1022233;29;20032;-81
2021/06/01 02:09:09;;;;;;;5.53;3.42;;;;;;;9.04;95.57;95708.22;1021865;29;20556;-81
2021/06/01 02:09:40;;;;;;;5.13;3.45;;;;;;;9.15;96.30;95729.00;1017523;29;20175;-81
2021/06/01 02:10:11;;;;;;;6.03;4.32;;;;;;;9.17;96.10;95721.72;1013866;29;20072;-80
2021/06/01 02:10:42;;;;;;;4.97;3.55;;;;;;;8.98;96.47;95700.94;1021325;29;20034;-81
2021/06/01 02:11:12;;;;;;;6.57;3.88;;;;;;;9.00;97.09;95704.25;1013551;29;20036;-81
2021/06/01 02:11:43;;;;;;;6.20;3.80;;;;;;;9.00;97.29;95715.66;1014018;29;20035;-81
2021/06/01 02:12:15;;;;;;;5.57;3.78;;;;;;;9.00;97.26;95715.66;1017620;29;20047;-80
2021/06/01 02:12:45;;;;;;;5.32;3.78;;;;;;;8.91;97.19;95692.03;1017573;29;20407;-81
2021/06/01 02:13:16;;;;;;;6.15;4.03;;;;;;;8.96;96.83;95702.94;1017658;29;20028;-81
2021/06/01 02:13:53;;;;;;;8.88;3.70;;;;;;;8.89;96.04;95694.84;1025702;29;20031;-81
2021/06/01 02:14:24;;;;;;;6.55;3.47;;;;;;;8.93;95.57;95700.63;1021676;29;20027;-80
2021/06/01 02:14:55;;;;;;;5.90;3.53;;;;;;;9.00;95.55;95722.78;1025346;28;20027;-80
2021/06/01 02:15:25;;;;;;;5.50;3.58;;;;;;;9.05;96.01;95723.09;1025380;29;20035;-81
2021/06/01 02:15:56;;;;;;;5.45;3.30;;;;;;;9.02;95.89;95718.97;1021678;29;20162;-81
2021/06/01 02:16:27;;;;;;;4.82;3.40;;;;;;;9.01;95.64;95717.31;1021626;29;20026;-81
2021/06/01 02:16:58;;;;;;;5.45;3.30;;;;;;;8.83;95.47;95692.88;1013735;29;20115;-82
2021/06/01 02:17:29;;;;;;;6.10;3.55;;;;;;;8.77;95.49;95675.88;1017745;29;20467;-81
2021/06/01 02:18:00;;;;;;;8.48;3.85;;;;;;;8.84;95.63;95684.78;1013966;29;20116;-81
2021/06/01 02:18:30;;;;;;;4.72;3.50;;;;;;;8.83;95.41;95688.44;1021800;29;20023;-80
2021/06/01 02:19:01;;;;;;;5.40;3.67;;;;;;;8.83;95.34;95688.44;1014115;29;20024;-80
2021/06/01 02:19:32;;;;;;;6.90;3.60;;;;;;;9.02;95.56;95715.50;1021803;29;20031;-80
2021/06/01 02:20:04;;;;;;;5.90;3.50;;;;;;;8.86;95.33;95679.31;1021360;29;20393;-81
2021/06/01 02:20:35;;;;;;;4.15;2.90;;;;;;;8.93;95.36;95712.03;1021416;29;20028;-80
2021/06/01 02:21:09;;;;;;;5.22;3.30;;;;;;;9.01;95.56;95717.31;1021592;29;20104;-80
2021/06/01 02:23:48;;;;;;;5.38;3.35;;;;;;;8.93;95.12;95705.94;1021518;29;20063;-81
2021/06/01 02:24:29;;;;;;;4.72;3.28;;;;;;;8.99;94.90;95719.31;1017369;29;20028;-80
2021/06/01 02:25:13;;;;;;;5.32;3.55;;;;;;;8.66;94.75;95670.97;1021588;29;20091;-81
2021/06/01 02:26:06;;;;;;;7.57;3.78;;;;;;;8.97;95.31;95718.66;1017412;29;20079;-80
2021/06/01 02:26:55;;;;;;;5.90;3.72;;;;;;;8.99;95.31;95724.63;1013591;29;20029;-81
2021/06/01 02:27:38;;;;;;;6.05;3.60;;;;;;;8.80;95.49;95714.44;1022807;29;20023;-81
2021/06/01 02:28:21;;;;;;;4.97;3.50;;;;;;;8.69;96.31;95689.16;1022229;29;20122;-82
2021/06/01 02:28:53;;;;;;;6.18;3.85;;;;;;;8.90;95.92;95722.16;1022210;29;20023;-80
2021/06/01 02:29:43;;;;;;;5.07;3.25;;;;;;;8.90;96.20;95719.50;1022609;29;20141;-80
2021/06/01 02:30:18;;;;;;;4.50;3.20;;;;;;;8.68;95.83;95693.59;1022851;29;20118;-80
2021/06/01 02:31:05;;;;;;;4.90;3.63;;;;;;;8.89;95.83;95724.00;1026587;29;20108;-80
2021/06/01 02:31:38;;;;;;;6.65;3.58;;;;;;;8.93;95.61;95721.81;1014806;29;20029;-80
2021/06/01 02:32:09;;;;;;;5.75;3.53;;;;;;;8.49;95.85;95657.75;1021541;29;20027;-81
2021/06/01 02:32:45;;;;;;;5.97;3.22;;;;;;;8.61;95.74;95697.13;1025230;28;20035;-81
2021/06/01 02:33:17;;;;;;;5.18;3.40;;;;;;;8.84;96.22;95724.50;1021007;29;20024;-81
2021/06/01 02:33:48;;;;;;;5.03;3.33;;;;;;;8.84;96.61;95721.84;1020914;29;20027;-81
2021/06/01 02:34:19;;;;;;;5.43;3.58;;;;;;;8.85;96.41;95725.34;1021354;29;20020;-81
2021/06/01 02:34:49;;;;;;;8.35;3.88;;;;;;;8.74;96.45;95704.50;1016888;29;20397;-80
2021/06/01 02:35:33;;;;;;;6.32;3.85;;;;;;;8.75;96.67;95709.63;1021293;29;20027;-81
2021/06/01 02:36:05;;;;;;;6.03;3.60;;;;;;;8.62;97.24;95681.06;1013312;29;20040;-80
2021/06/01 02:36:36;;;;;;;5.70;3.70;;;;;;;8.87;97.69;95723.34;1017319;29;20020;-80
2021/06/01 02:37:07;;;;;;;7.60;3.70;;;;;;;8.62;97.85;95680.22;1009475;29;20025;-80
2021/06/01 02:37:39;;;;;;;5.60;3.60;;;;;;;8.80;98.23;95720.53;1017053;29;20024;-81
2021/06/01 02:38:10;;;;;;;5.30;3.65;;;;;;;8.75;98.64;95708.81;1016939;29;20040;-80
2021/06/01 02:38:41;;;;;;;5.72;3.63;;;;;;;8.75;98.61;95708.81;1012721;29;20028;-81
2021/06/01 02:39:13;;;;;;;5.60;3.80;;;;;;;8.66;98.69;95689.50;1012836;29;20115;-81
2021/06/01 02:39:43;;;;;;;6.65;4.10;;;;;;;8.69;99.28;95694.44;1016701;29;20119;-80
2021/06/01 02:40:15;;;;;;;6.95;4.28;;;;;;;8.84;99.44;95727.13;1013001;29;20020;-81
2021/06/01 02:40:47;;;;;;;8.07;3.95;;;;;;;8.81;100.00;95710.78;1012861;29;20024;-81
2021/06/01 02:41:17;;;;;;;6.72;4.13;;;;;;;8.75;100.00;95714.94;1009021;29;20105;-81
2021/06/01 02:41:49;;;;;;;8.20;3.85;;;;;;;8.77;100.00;95714.75;1013135;29;20051;-81
2021/06/01 02:42:19;;;;;;;6.15;3.88;;;;;;;8.39;100.00;95654.44;1020790;29;20031;-80
2021/06/01 02:42:50;;;;;;;8.98;4.15;;;;;;;8.70;100.00;95711.97;1028730;28;20117;-81
2021/06/01 02:43:21;;;;;;;6.47;3.75;;;;;;;8.72;100.00;95715.25;1021020;29;20498;-81
2021/06/01 02:43:51;;;;;;;5.70;4.07;;;;;;;8.38;100.00;95666.03;1013355;29;20417;-80
2021/06/01 02:44:22;;;;;;;6.18;3.70;;;;;;;8.57;100.00;95699.28;1021220;29;20413;-80
2021/06/01 02:44:52;;;;;;;7.10;4.05;;;;;;;8.68;100.00;95720.06;1017191;29;20110;-80
2021/06/01 02:45:24;;;;;;;6.47;4.18;;;;;;;8.72;100.00;95727.69;1020947;29;20030;-80
2021/06/01 02:45:55;;;;;;;5.80;3.88;;;;;;;8.57;100.00;95707.22;1017559;29;20024;-80
2021/06/01 02:46:25;;;;;;;5.05;4.05;;;;;;;8.42;100.00;95685.91;1013670;29;20021;-81
2021/06/01 02:46:59;;;;;;;6.20;4.15;;;;;;;8.16;100.00;95657.00;1013433;29;20036;-80
2021/06/01 02:47:30;;;;;;;7.38;4.10;;;;;;;8.17;100.00;95644.59;1017400;29;20122;-80
2021/06/01 02:48:06;;;;;;;5.05;4.00;;;;;;;8.60;100.00;95724.56;1013348;29;20024;-80
2021/06/01 02:48:37;;;;;;;5.43;4.05;;;;;;;8.60;100.00;95722.72;1013438;29;20024;-81
2021/06/01 02:49:08;;;;;;;7.13;3.80;;;;;;;8.53;100.00;95710.38;1021552;29;20042;-80
2021/06/01 02:49:39;;;;;;;8.32;4.07;;;;;;;8.54;100.00;95720.78;1024551;29;20067;-80
2021/06/01 02:50:10;;;;;;;7.30;4.20;;;;;;;8.48;100.00;95718.78;1018720;29;20549;-80
2021/06/01 02:50:41;;;;;;;6.45;4.15;;;;;;;8.15;100.00;95662.44;1018133;29;20060;-80
2021/06/01 02:51:16;;;;;;;6.18;3.88;;;;;;;8.47;100.00;95711.88;1014337;29;20508;-80
2021/06/01 02:51:47;;;;;;;5.95;4.20;;;;;;;8.37;100.00;95703.25;1021346;29;20501;-80
2021/06/01 02:52:18;;;;;;;6.68;4.05;;;;;;;8.44;100.00;95715.66;1020717;29;20039;-81
2021/06/01 02:52:48;;;;;;;6.85;4.22;;;;;;;8.49;100.00;95723.09;1020755;29;20042;-80
2021/06/01 02:53:21;;;;;;;6.40;3.95;;;;;;;8.42;100.00;95708.88;1012875;29;20025;-80
2021/06/01 02:53:52;;;;;;;6.38;4.03;;;;;;;8.38;100.00;95711.03;1020834;29;20028;-80
2021/06/01 02:54:23;;;;;;;5.05;4.10;;;;;;;8.00;100.00;95655.19;1012843;29;20028;-81
2021/06/01 02:54:53;;;;;;;5.70;4.13;;;;;;;8.38;100.00;95718.97;1024977;29;20090;-81
2021/06/01 02:55:24;;;;;;;5.22;4.03;;;;;;;8.38;100.00;95713.69;1012736;29;20127;-81
2021/06/01 02:55:55;;;;;;;5.57;3.95;;;;;;;8.31;100.00;95710.88;1024624;29;20023;-80
2021/06/01 02:56:26;;;;;;;7.47;4.70;;;;;;;7.97;100.00;95650.25;1016704;29;20024;-81
2021/06/01 02:56:56;;;;;;;5.40;4.10;;;;;;;7.91;100.00;95651.75;1021044;29;20027;-80
2021/06/01 02:57:27;;;;;;;6.57;4.15;;;;;;;8.40;100.00;95730.19;1017067;29;20032;-80
2021/06/01 02:57:58;;;;;;;5.20;4.25;;;;;;;8.37;100.00;95714.66;1020750;29;20024;-80
2021/06/01 02:58:28;;;;;;;6.20;4.38;;;;;;;8.20;100.00;95697.97;1017152;29;20126;-80
2021/06/01 02:58:59;;;;;;;7.07;4.20;;;;;;;8.29;100.00;95712.88;1020983;29;20449;-80
2021/06/01 02:59:30;;;;;;;5.53;3.72;;;;;;;8.12;100.00;95684.78;1009031;29;20081;-80
2021/06/01 03:00:00;;;;;;;6.43;4.53;;;;;;;8.08;100.00;95689.56;1020621;29;20450;-81